Time,TemperatureF,DewpointF,PressureIn,WindDirection,WindDirectionDegrees,WindSpeedMPH,WindSpeedGustMPH,Humidity,HourlyPrecipIn,Conditions,Clouds,dailyrainin,SoftwareType,DateUTC
2013-03-19 00:00:00,29.8,18.8,30.23,WNW,294,0.0,0.0,63,0.00,OVC,,0.00,WeatherDisplay:10.37,2013-03-19 04:00:00,
2013-03-19 00:05:00,29.1,18.8,30.23,WNW,294,0.0,0.0,65,0.00,OVC,,0.00,WeatherDisplay:10.37,2013-03-19 04:05:00,
2013-03-19 00:10:00,27.9,17.6,30.22,WNW,294,0.0,0.0,65,0.00,OVC,,0.00,WeatherDisplay:10.37,2013-03-19 04:10:00,
2013-03-19 00:15:00,28.2,17.9,30.22,WNW,294,0.0,0.0,65,0.00,OVC,,0.00,WeatherDisplay:10.37,2013-03-19 04:15:00,
2013-03-19 00:20:00,28.2,18.0,30.22,WNW,294,0.0,0.0,65,0.00,OVC,,0.00,WeatherDisplay:10.37,2013-03-19 04:20:00,
2013-03-19 00:25:00,29.2,18.9,30.22,WNW,294,0.0,0.0,65,0.00,OVC,,0.00,WeatherDisplay:10.37,2013-03-19 04:25:00,
2013-03-19 00:30:00,28.9,18.6,30.21,WNW,294,0.0,0.0,65,0.00,OVC,,0.00,WeatherDisplay:10.37,2013-03-19 04:30:00,
2013-03-19 00:35:00,28.9,18.6,30.20,WNW,294,0.0,0.0,65,0.00,OVC,,0.00,WeatherDisplay:10.37,2013-03-19 04:35:00,
2013-03-19 00:45:00,28.4,18.1,30.20,WNW,294,0.0,0.0,65,0.00,OVC,,0.00,WeatherDisplay:10.37,2013-03-19 04:45:00,
2013-03-19 00:50:00,28.6,18.3,30.19,WNW,294,0.0,0.0,65,0.00,OVC,,0.00,WeatherDisplay:10.37,2013-03-19 04:50:00,
2013-03-19 00:55:00,28.1,17.8,30.19,WNW,293,0.0,6.0,65,0.00,OVC,,0.00,WeatherDisplay:10.37,2013-03-19 04:55:00,
2013-03-19 01:00:00,28.7,18.4,30.19,WNW,292,0.0,0.0,65,0.00,OVC,,0.00,WeatherDisplay:10.37,2013-03-19 05:00:00,
2013-03-19 01:05:00,27.8,23.6,30.19,WNW,292,0.0,0.0,84,0.00,-SN,,0.00,WeatherDisplay:10.37,2013-03-19 05:05:00,
2013-03-19 01:10:00,27.9,23.7,30.18,WNW,297,0.0,3.0,84,0.00,-SN,,0.00,WeatherDisplay:10.37,2013-03-19 05:10:00,
2013-03-19 01:15:00,27.7,24.0,30.18,WNW,301,0.0,0.0,86,0.00,-SN,,0.00,WeatherDisplay:10.37,2013-03-19 05:15:00,
2013-03-19 01:20:00,28.1,24.4,30.18,WNW,301,0.0,0.0,86,0.00,-SN,,0.00,WeatherDisplay:10.37,2013-03-19 05:20:00,
2013-03-19 01:25:00,27.7,24.0,30.17,WNW,297,1.0,5.0,86,0.00,-SN,,0.00,WeatherDisplay:10.37,2013-03-19 05:25:00,
2013-03-19 01:30:00,27.2,23.6,30.17,WNW,291,1.0,5.0,86,0.00,-SN,,0.00,WeatherDisplay:10.37,2013-03-19 05:30:00,
2013-03-19 01:35:00,27.5,23.9,30.17,WNW,292,0.0,3.0,86,0.00,-SN,,0.00,WeatherDisplay:10.37,2013-03-19 05:35:00,
2013-03-19 01:40:00,27.7,24.1,30.17,WNW,295,0.0,5.0,86,0.00,-SN,,0.00,WeatherDisplay:10.37,2013-03-19 05:40:00,
2013-03-19 01:45:00,28.0,24.4,30.16,WNW,296,0.0,0.0,86,0.00,-SN,,0.00,WeatherDisplay:10.37,2013-03-19 05:45:00,
2013-03-19 01:50:00,27.5,23.9,30.17,WNW,296,0.0,0.0,86,0.00,-SN,,0.00,WeatherDisplay:10.37,2013-03-19 05:50:00,
2013-03-19 01:55:00,27.4,23.8,30.16,WNW,303,0.0,6.0,86,0.00,-SN,,0.00,WeatherDisplay:10.37,2013-03-19 05:55:00,
2013-03-19 02:05:00,27.8,25.8,30.16,NW,308,0.0,0.0,92,0.00,-SN,,0.00,WeatherDisplay:10.37,2013-03-19 06:05:00,
2013-03-19 02:10:00,27.6,25.6,30.15,NW,308,0.0,0.0,92,0.00,-SN,,0.00,WeatherDisplay:10.37,2013-03-19 06:10:00,
2013-03-19 02:15:00,27.5,25.5,30.14,NW,308,0.0,0.0,92,0.00,-SN,,0.00,WeatherDisplay:10.37,2013-03-19 06:15:00,
2013-03-19 02:20:00,28.1,26.1,30.14,NW,308,0.0,0.0,92,0.00,-SN,,0.00,WeatherDisplay:10.37,2013-03-19 06:20:00,
2013-03-19 02:30:00,27.3,25.2,30.13,WNW,303,1.0,5.0,92,0.00,-SN,,0.00,WeatherDisplay:10.37,2013-03-19 06:30:00,
2013-03-19 02:35:00,27.4,27.4,30.13,WNW,293,0.0,0.0,100,0.00,-SN,,0.00,WeatherDisplay:10.37,2013-03-19 06:35:00,
2013-03-19 02:40:00,27.3,27.3,30.13,WNW,289,0.0,0.0,100,0.00,-SN,,0.00,WeatherDisplay:10.37,2013-03-19 06:40:00,
2013-03-19 02:50:00,27.1,27.1,30.12,WNW,289,0.0,0.0,100,0.00,-SN,,0.00,WeatherDisplay:10.37,2013-03-19 06:50:00,
2013-03-19 02:55:00,27.2,27.2,30.12,WNW,289,0.0,0.0,100,0.00,-SN,,0.00,WeatherDisplay:10.37,2013-03-19 06:55:00,
2013-03-19 03:00:00,27.2,27.2,30.12,WNW,289,0.0,0.0,100,0.00,-SN,,0.00,WeatherDisplay:10.37,2013-03-19 07:00:00,
2013-03-19 03:05:00,27.5,26.5,30.12,WNW,289,0.0,0.0,96,0.00,-SN,,0.00,WeatherDisplay:10.37,2013-03-19 07:05:00,
2013-03-19 03:10:00,27.4,26.4,30.12,WNW,289,0.0,0.0,96,0.00,-SN,,0.00,WeatherDisplay:10.37,2013-03-19 07:10:00,
2013-03-19 03:15:00,27.7,26.7,30.12,WNW,288,0.0,8.0,96,0.00,-SN,,0.00,WeatherDisplay:10.37,2013-03-19 07:15:00,
2013-03-19 03:20:00,27.3,26.3,30.12,South,177,0.0,7.0,96,0.00,-SN,,0.00,WeatherDisplay:10.37,2013-03-19 07:20:00,
2013-03-19 03:25:00,27.1,26.1,30.12,SSE,157,0.0,0.0,96,0.00,-SN,,0.00,WeatherDisplay:10.37,2013-03-19 07:25:00,
2013-03-19 03:30:00,26.7,25.7,30.12,SSE,155,0.0,6.0,96,0.00,-SN,,0.00,WeatherDisplay:10.37,2013-03-19 07:30:00,
2013-03-19 03:40:00,27.8,26.8,30.12,South,172,0.0,3.0,96,0.00,-SN,,0.00,WeatherDisplay:10.37,2013-03-19 07:40:00,
2013-03-19 03:45:00,27.3,26.4,30.11,SSE,160,0.0,3.0,96,0.00,-SN,,0.00,WeatherDisplay:10.37,2013-03-19 07:45:00,
2013-03-19 03:50:00,26.9,25.9,30.11,SSE,153,0.0,7.0,96,0.00,-SN,,0.00,WeatherDisplay:10.37,2013-03-19 07:50:00,
2013-03-19 03:55:00,26.6,26.6,30.11,SSE,153,0.0,0.0,100,0.00,-SN,,0.00,WeatherDisplay:10.37,2013-03-19 07:55:00,
2013-03-19 04:00:00,27.3,27.3,30.11,SSE,152,0.0,0.0,100,0.00,-SN,,0.00,WeatherDisplay:10.37,2013-03-19 08:00:00,
2013-03-19 04:05:00,26.8,25.5,30.11,SSE,152,0.0,0.0,95,0.00,-SN,,0.00,WeatherDisplay:10.37,2013-03-19 08:05:00,
2013-03-19 04:10:00,27.2,25.9,30.10,SSE,152,0.0,2.0,95,0.00,-SN,,0.00,WeatherDisplay:10.37,2013-03-19 08:10:00,
2013-03-19 04:15:00,27.5,25.5,30.11,SSE,160,0.0,2.0,92,0.00,-SN,,0.00,WeatherDisplay:10.37,2013-03-19 08:15:00,
2013-03-19 04:20:00,27.1,25.1,30.11,SSE,164,1.0,5.0,92,0.00,-SN,,0.00,WeatherDisplay:10.37,2013-03-19 08:20:00,
2013-03-19 04:25:00,27.1,25.1,30.10,SSE,156,0.0,3.0,92,0.00,-SN,,0.00,WeatherDisplay:10.37,2013-03-19 08:25:00,
2013-03-19 04:30:00,26.6,24.6,30.10,SSE,155,0.0,7.0,92,0.00,-SN,,0.00,WeatherDisplay:10.37,2013-03-19 08:30:00,
2013-03-19 04:35:00,27.0,24.9,30.10,SSE,156,0.0,9.0,92,0.00,-SN,,0.00,WeatherDisplay:10.37,2013-03-19 08:35:00,
2013-03-19 04:40:00,27.1,25.1,30.09,SSE,152,0.0,0.0,92,0.00,-SN,,0.00,WeatherDisplay:10.37,2013-03-19 08:40:00,
2013-03-19 04:45:00,27.2,25.1,30.09,SSE,152,0.0,0.0,92,0.00,-SN,,0.00,WeatherDisplay:10.37,2013-03-19 08:45:00,
2013-03-19 04:50:00,27.3,25.3,30.08,SSE,152,0.0,0.0,92,0.00,-SN,,0.00,WeatherDisplay:10.37,2013-03-19 08:50:00,
2013-03-19 04:55:00,27.2,25.2,30.08,SSE,152,0.0,0.0,92,0.00,,,0.00,WeatherDisplay:10.37,2013-03-19 08:55:00,
2013-03-19 05:00:00,27.8,25.7,30.08,SSE,152,0.0,0.0,92,0.00,,,0.00,WeatherDisplay:10.37,2013-03-19 09:00:00,
2013-03-19 05:05:00,27.5,25.5,30.07,SSE,152,0.0,0.0,92,0.00,-SN,,0.00,WeatherDisplay:10.37,2013-03-19 09:05:00,
2013-03-19 05:10:00,27.1,25.1,30.08,SSE,152,0.0,0.0,92,0.00,-SN,,0.00,WeatherDisplay:10.37,2013-03-19 09:10:00,
2013-03-19 05:15:00,27.2,25.2,30.08,SSE,152,0.0,0.0,92,0.00,-SN,,0.00,WeatherDisplay:10.37,2013-03-19 09:15:00,
2013-03-19 05:20:00,27.6,25.6,30.08,SSE,152,0.0,0.0,92,0.00,-SN,,0.00,WeatherDisplay:10.37,2013-03-19 09:20:00,
2013-03-19 05:25:00,27.8,25.8,30.08,SSE,152,0.0,0.0,92,0.00,-SN,,0.00,WeatherDisplay:10.37,2013-03-19 09:25:00,
2013-03-19 05:30:00,27.9,25.9,30.08,SSE,152,0.0,0.0,92,0.00,-SN,,0.00,WeatherDisplay:10.37,2013-03-19 09:30:00,
2013-03-19 05:35:00,27.3,25.3,30.08,SSE,152,0.0,0.0,92,0.00,,,0.00,WeatherDisplay:10.37,2013-03-19 09:35:00,
2013-03-19 05:40:00,27.6,25.6,30.07,SSE,152,0.0,0.0,92,0.00,,,0.00,WeatherDisplay:10.37,2013-03-19 09:40:00,
2013-03-19 05:45:00,27.9,25.9,30.07,SSE,152,0.0,0.0,92,0.00,,,0.00,WeatherDisplay:10.37,2013-03-19 09:45:00,
2013-03-19 05:50:00,27.1,25.1,30.07,SSE,149,0.0,7.0,92,0.00,,,0.00,WeatherDisplay:10.37,2013-03-19 09:50:00,
2013-03-19 05:55:00,27.3,25.3,30.07,SSE,147,0.0,0.0,92,0.00,,,0.00,WeatherDisplay:10.37,2013-03-19 09:55:00,
2013-03-19 06:00:00,27.4,25.4,30.07,SSE,147,0.0,0.0,92,0.00,,,0.00,WeatherDisplay:10.37,2013-03-19 10:00:00,
2013-03-19 06:05:00,27.1,25.9,30.07,SE,143,0.0,6.0,95,0.00,-SN,,0.00,WeatherDisplay:10.37,2013-03-19 10:05:00,
2013-03-19 06:10:00,27.8,26.6,30.06,SE,140,0.0,0.0,95,0.00,-SN,,0.00,WeatherDisplay:10.37,2013-03-19 10:10:00,
2013-03-19 06:15:00,27.6,26.3,30.06,SE,140,0.0,0.0,95,0.00,-SN,,0.00,WeatherDisplay:10.37,2013-03-19 10:15:00,
2013-03-19 06:20:00,27.8,26.5,30.06,SE,140,0.0,0.0,95,0.00,-SN,,0.00,WeatherDisplay:10.37,2013-03-19 10:20:00,
2013-03-19 06:25:00,28.0,26.8,30.06,SE,140,0.0,0.0,95,0.00,-SN,,0.00,WeatherDisplay:10.37,2013-03-19 10:25:00,
2013-03-19 06:30:00,27.5,26.2,30.06,SE,140,0.0,0.0,95,0.00,-SN,,0.00,WeatherDisplay:10.37,2013-03-19 10:30:00,
2013-03-19 06:35:00,28.2,26.9,30.06,SE,140,0.0,0.0,95,0.00,-SN,,0.00,WeatherDisplay:10.37,2013-03-19 10:35:00,
2013-03-19 06:40:00,27.6,26.4,30.05,SE,140,0.0,0.0,95,0.00,-SN,,0.00,WeatherDisplay:10.37,2013-03-19 10:40:00,
2013-03-19 06:45:00,27.5,25.5,30.05,SE,146,0.0,5.0,92,0.00,-SN,,0.00,WeatherDisplay:10.37,2013-03-19 10:45:00,
2013-03-19 06:50:00,28.5,26.5,30.04,SSE,154,0.0,0.0,92,0.00,-SN,,0.00,WeatherDisplay:10.37,2013-03-19 10:50:00,
2013-03-19 06:55:00,28.3,26.3,30.04,SSE,155,0.0,0.0,92,0.00,-SN,,0.00,WeatherDisplay:10.37,2013-03-19 10:55:00,
2013-03-19 07:00:00,28.4,26.4,30.03,SSE,155,0.0,0.0,92,0.00,-SN,,0.00,WeatherDisplay:10.37,2013-03-19 11:00:00,
2013-03-19 07:05:00,28.1,26.0,30.03,SSE,155,0.0,0.0,92,0.00,-SN,,0.00,WeatherDisplay:10.37,2013-03-19 11:05:00,
2013-03-19 07:10:00,27.4,25.4,30.03,SSE,152,0.0,5.0,92,0.00,-SN,,0.00,WeatherDisplay:10.37,2013-03-19 11:10:00,
2013-03-19 07:15:00,27.8,25.8,30.03,SSE,149,0.0,0.0,92,0.00,-SN,,0.00,WeatherDisplay:10.37,2013-03-19 11:15:00,
2013-03-19 07:20:00,28.5,26.5,30.03,SSE,148,0.0,0.0,92,0.00,-SN,,0.00,WeatherDisplay:10.37,2013-03-19 11:20:00,
2013-03-19 07:30:00,28.8,26.8,30.03,SSE,148,0.0,0.0,92,0.00,-SN,,0.00,WeatherDisplay:10.37,2013-03-19 11:30:00,
2013-03-19 07:35:00,28.2,26.2,30.02,SSE,148,0.0,0.0,92,0.00,-SN,,0.00,WeatherDisplay:10.37,2013-03-19 11:35:00,
2013-03-19 07:40:00,28.8,26.8,30.02,SSE,148,0.0,0.0,92,0.00,-SN,,0.00,WeatherDisplay:10.37,2013-03-19 11:40:00,
2013-03-19 07:45:00,28.1,26.1,30.01,SSE,155,0.0,6.0,92,0.00,,,0.00,WeatherDisplay:10.37,2013-03-19 11:45:00,
2013-03-19 07:50:00,28.8,26.7,30.01,SSE,155,0.0,0.0,92,0.00,,,0.00,WeatherDisplay:10.37,2013-03-19 11:50:00,
2013-03-19 07:55:00,28.8,26.8,30.01,SSE,154,2.0,9.0,92,0.00,,,0.00,WeatherDisplay:10.37,2013-03-19 11:55:00,
2013-03-19 08:00:00,29.2,27.2,30.01,SSE,157,0.0,5.0,92,0.00,,,0.00,WeatherDisplay:10.37,2013-03-19 12:00:00,
2013-03-19 08:05:00,28.3,26.3,30.00,SSE,156,0.0,7.0,92,0.00,-SN,,0.00,WeatherDisplay:10.37,2013-03-19 12:05:00,
2013-03-19 08:10:00,29.0,27.0,30.00,SSE,154,0.0,7.0,92,0.00,-SN,,0.00,WeatherDisplay:10.37,2013-03-19 12:10:00,
2013-03-19 08:15:00,29.2,27.2,30.00,SSE,152,0.0,0.0,92,0.00,-SN,,0.00,WeatherDisplay:10.37,2013-03-19 12:15:00,
2013-03-19 08:20:00,29.5,27.4,29.99,SSE,151,1.0,5.0,92,0.00,-SN,,0.00,WeatherDisplay:10.37,2013-03-19 12:20:00,
2013-03-19 08:25:00,29.1,27.1,29.99,SSE,151,0.0,0.0,92,0.00,-SN,,0.00,WeatherDisplay:10.37,2013-03-19 12:25:00,
2013-03-19 08:30:00,28.9,26.9,29.99,SSE,151,0.0,0.0,92,0.00,-SN,,0.00,WeatherDisplay:10.37,2013-03-19 12:30:00,
2013-03-19 08:35:00,29.2,27.2,29.99,SSE,151,0.0,0.0,92,0.00,-SN,,0.00,WeatherDisplay:10.37,2013-03-19 12:35:00,
2013-03-19 08:40:00,29.5,27.5,29.98,SE,146,0.0,7.0,92,0.00,-SN,,0.00,WeatherDisplay:10.37,2013-03-19 12:40:00,
2013-03-19 08:45:00,29.7,27.6,29.98,SE,146,1.0,5.0,92,0.00,-SN,,0.00,WeatherDisplay:10.37,2013-03-19 12:45:00,
2013-03-19 08:50:00,29.9,27.9,29.99,SSE,158,0.0,0.0,92,0.00,-SN,,0.00,WeatherDisplay:10.37,2013-03-19 12:50:00,
2013-03-19 08:55:00,29.9,27.8,29.99,SSE,165,0.0,0.0,92,0.00,-SN,,0.00,WeatherDisplay:10.37,2013-03-19 12:55:00,
2013-03-19 09:00:00,29.9,27.9,29.98,SSE,165,0.0,0.0,92,0.00,-SN,,0.00,WeatherDisplay:10.37,2013-03-19 13:00:00,
2013-03-19 09:05:00,30.6,28.5,29.98,SSE,165,0.0,0.0,92,0.00,-SN,,0.00,WeatherDisplay:10.37,2013-03-19 13:05:00,
2013-03-19 09:10:00,30.2,28.2,29.98,SSE,156,0.0,9.0,92,0.00,-SN,,0.00,WeatherDisplay:10.37,2013-03-19 13:10:00,
2013-03-19 09:15:00,30.3,28.2,29.97,SSE,149,0.0,0.0,92,0.00,-SN,,0.00,WeatherDisplay:10.37,2013-03-19 13:15:00,
2013-03-19 09:20:00,29.7,27.7,29.97,SSE,148,0.0,0.0,92,0.00,-SN,,0.00,WeatherDisplay:10.37,2013-03-19 13:20:00,
2013-03-19 09:25:00,30.0,28.0,29.97,SSE,148,0.0,0.0,92,0.00,-SN,,0.00,WeatherDisplay:10.37,2013-03-19 13:25:00,
2013-03-19 09:30:00,30.8,28.7,29.97,SSE,148,0.0,0.0,92,0.00,-SN,,0.00,WeatherDisplay:10.37,2013-03-19 13:30:00,
2013-03-19 09:35:00,30.6,28.6,29.97,SSE,148,0.0,0.0,92,0.00,-SN,,0.00,WeatherDisplay:10.37,2013-03-19 13:35:00,
2013-03-19 09:40:00,30.8,28.8,29.97,SSE,148,0.0,0.0,92,0.00,-SN,,0.00,WeatherDisplay:10.37,2013-03-19 13:40:00,
2013-03-19 09:45:00,30.3,28.2,29.96,SSE,150,3.0,7.0,92,0.00,-SN,,0.00,WeatherDisplay:10.37,2013-03-19 13:45:00,
2013-03-19 09:50:00,30.1,28.0,29.96,SSE,149,3.0,9.0,92,0.00,-SN,,0.00,WeatherDisplay:10.37,2013-03-19 13:50:00,
2013-03-19 09:55:00,30.6,28.5,29.96,SSE,148,0.0,3.0,92,0.00,-SN,,0.00,WeatherDisplay:10.37,2013-03-19 13:55:00,
2013-03-19 10:00:00,31.0,28.9,29.95,SSE,150,0.0,0.0,92,0.00,-SN,,0.00,WeatherDisplay:10.37,2013-03-19 14:00:00,
2013-03-19 10:05:00,30.9,27.7,29.95,SSE,150,0.0,0.0,88,0.00,-SN,,0.00,WeatherDisplay:10.37,2013-03-19 14:05:00,
2013-03-19 10:10:00,30.7,27.6,29.94,SSE,149,0.0,10.0,88,0.00,-SN,,0.00,WeatherDisplay:10.37,2013-03-19 14:10:00,
2013-03-19 10:15:00,30.9,28.9,29.94,East,92,0.0,9.0,92,0.00,-SN,,0.00,WeatherDisplay:10.37,2013-03-19 14:15:00,
2013-03-19 10:20:00,30.6,28.6,29.94,East,83,1.0,8.0,92,0.00,-SN,,0.00,WeatherDisplay:10.37,2013-03-19 14:20:00,
2013-03-19 10:25:00,30.4,28.3,29.94,East,88,1.0,8.0,92,0.00,-SN,,0.00,WeatherDisplay:10.37,2013-03-19 14:25:00,
2013-03-19 10:30:00,31.1,29.1,29.94,East,85,0.0,0.0,92,0.00,-SN,,0.00,WeatherDisplay:10.37,2013-03-19 14:30:00,
2013-03-19 10:35:00,31.2,29.2,29.94,East,80,0.0,6.0,92,0.00,-SN,,0.00,WeatherDisplay:10.37,2013-03-19 14:35:00,
2013-03-19 10:40:00,30.9,28.9,29.93,ENE,70,5.0,9.0,92,0.00,-SN,,0.00,WeatherDisplay:10.37,2013-03-19 14:40:00,
2013-03-19 10:45:00,30.6,28.6,29.93,ENE,64,1.0,7.0,92,0.00,OVC,,0.00,WeatherDisplay:10.37,2013-03-19 14:45:00,
2013-03-19 10:50:00,30.2,28.1,29.93,ENE,64,0.0,0.0,92,0.00,OVC,,0.00,WeatherDisplay:10.37,2013-03-19 14:50:00,
2013-03-19 11:00:00,31.7,29.7,29.92,ENE,65,0.0,0.0,92,0.00,OVC,,0.00,WeatherDisplay:10.37,2013-03-19 15:00:00,
2013-03-19 11:05:00,31.8,29.7,29.91,ENE,65,0.0,0.0,92,0.00,,,0.00,WeatherDisplay:10.37,2013-03-19 15:05:00,
2013-03-19 11:10:00,31.9,29.8,29.91,ENE,65,0.0,0.0,92,0.00,,,0.00,WeatherDisplay:10.37,2013-03-19 15:10:00,
2013-03-19 11:15:00,31.5,29.5,29.91,ENE,65,0.0,0.0,92,0.00,,,0.00,WeatherDisplay:10.37,2013-03-19 15:15:00,
2013-03-19 11:20:00,31.7,29.6,29.91,ENE,65,0.0,0.0,92,0.00,,,0.00,WeatherDisplay:10.37,2013-03-19 15:20:00,
2013-03-19 11:25:00,31.7,29.6,29.91,ENE,65,0.0,0.0,92,0.00,-SN,,0.00,WeatherDisplay:10.37,2013-03-19 15:25:00,
2013-03-19 11:30:00,31.7,29.7,29.91,ENE,65,0.0,0.0,92,0.00,-SN,,0.00,WeatherDisplay:10.37,2013-03-19 15:30:00,
2013-03-19 11:35:00,31.8,29.7,29.91,East,100,0.0,7.0,92,0.00,-SN,,0.00,WeatherDisplay:10.37,2013-03-19 15:35:00,
2013-03-19 11:40:00,31.8,29.8,29.90,SE,140,0.0,0.0,92,0.00,-SN,,0.00,WeatherDisplay:10.37,2013-03-19 15:40:00,
2013-03-19 11:45:00,31.7,29.7,29.89,East,95,0.0,8.0,92,0.00,-SN,,0.00,WeatherDisplay:10.37,2013-03-19 15:45:00,
2013-03-19 11:50:00,31.9,29.9,29.88,ENE,58,0.0,0.0,92,0.00,-SN,,0.00,WeatherDisplay:10.37,2013-03-19 15:50:00,
2013-03-19 11:55:00,32.3,30.2,29.87,ENE,72,0.0,9.0,92,0.00,-SN,,0.00,WeatherDisplay:10.37,2013-03-19 15:55:00,
2013-03-19 12:00:00,32.5,30.4,29.86,East,82,1.0,9.0,92,0.00,-SN,,0.00,WeatherDisplay:10.37,2013-03-19 16:00:00,
2013-03-19 12:05:00,31.8,29.8,29.87,ENE,72,1.0,9.0,92,0.00,-SN,,0.00,WeatherDisplay:10.37,2013-03-19 16:05:00,
2013-03-19 12:10:00,31.9,29.8,29.87,ENE,64,0.0,8.0,92,0.00,-SN,,0.00,WeatherDisplay:10.37,2013-03-19 16:10:00,
2013-03-19 12:15:00,32.0,28.3,29.87,ENE,73,0.0,11.0,86,0.00,-SN,,0.00,WeatherDisplay:10.37,2013-03-19 16:15:00,
2013-03-19 12:20:00,31.8,28.1,29.87,ENE,70,3.0,13.0,86,0.00,-SN,,0.00,WeatherDisplay:10.37,2013-03-19 16:20:00,
2013-03-19 12:25:00,31.8,28.1,29.86,ENE,62,0.0,15.0,86,0.00,-SN,,0.00,WeatherDisplay:10.37,2013-03-19 16:25:00,
2013-03-19 12:30:00,31.8,28.1,29.86,NE,55,0.0,13.0,86,0.00,-SN,,0.00,WeatherDisplay:10.37,2013-03-19 16:30:00,
2013-03-19 12:40:00,31.9,28.2,29.86,ENE,72,3.0,8.0,86,0.00,-SN,,0.00,WeatherDisplay:10.37,2013-03-19 16:40:00,
2013-03-19 12:45:00,31.9,28.2,29.86,NE,52,0.0,9.0,86,0.00,-SN,,0.00,WeatherDisplay:10.37,2013-03-19 16:45:00,
2013-03-19 12:50:00,31.8,28.1,29.85,NE,44,0.0,0.0,86,0.00,-SN,,0.00,WeatherDisplay:10.37,2013-03-19 16:50:00,
2013-03-19 13:00:00,31.9,28.2,29.84,NE,46,0.0,9.0,86,0.00,-SN,,0.00,WeatherDisplay:10.37,2013-03-19 17:00:00,
2013-03-19 13:05:00,31.9,28.8,29.84,NE,47,0.0,7.0,88,0.00,-SN,,0.00,WeatherDisplay:10.37,2013-03-19 17:05:00,
2013-03-19 13:10:00,32.0,28.9,29.84,NE,42,0.0,7.0,88,0.00,-SN,,0.00,WeatherDisplay:10.37,2013-03-19 17:10:00,
2013-03-19 13:15:00,32.1,29.0,29.84,NE,41,0.0,0.0,88,0.00,-SN,,0.00,WeatherDisplay:10.37,2013-03-19 17:15:00,
2013-03-19 13:20:00,32.2,29.1,29.85,NE,40,0.0,0.0,88,0.00,-SN,,0.00,WeatherDisplay:10.37,2013-03-19 17:20:00,
2013-03-19 13:25:00,31.9,28.2,29.85,NE,40,0.0,0.0,86,0.00,-SN,,0.00,WeatherDisplay:10.37,2013-03-19 17:25:00,
2013-03-19 13:30:00,31.9,28.2,29.85,NE,40,0.0,0.0,86,0.01,-SN,,0.01,WeatherDisplay:10.37,2013-03-19 17:30:00,
2013-03-19 13:35:00,31.6,27.9,29.85,NE,40,0.0,0.0,86,0.00,-SN,,0.01,WeatherDisplay:10.37,2013-03-19 17:35:00,
2013-03-19 13:40:00,31.4,27.7,29.86,NE,40,0.0,0.0,86,0.00,-SN,,0.01,WeatherDisplay:10.37,2013-03-19 17:40:00,
2013-03-19 13:50:00,31.9,28.2,29.85,NE,40,0.0,0.0,86,0.00,-SN,,0.01,WeatherDisplay:10.37,2013-03-19 17:50:00,
2013-03-19 13:55:00,31.7,28.0,29.86,NE,40,0.0,0.0,86,0.00,-SN,,0.01,WeatherDisplay:10.37,2013-03-19 17:55:00,
2013-03-19 14:00:00,31.6,27.9,29.87,NE,40,0.0,0.0,86,0.00,-SN,,0.01,WeatherDisplay:10.37,2013-03-19 18:00:00,
2013-03-19 14:05:00,32.0,28.8,29.88,NE,40,0.0,0.0,88,0.00,-SN,,0.01,WeatherDisplay:10.37,2013-03-19 18:05:00,
2013-03-19 14:10:00,32.0,28.8,29.88,NE,40,0.0,0.0,88,0.00,-SN,,0.01,WeatherDisplay:10.37,2013-03-19 18:10:00,
2013-03-19 14:15:00,31.7,28.6,29.84,NE,40,0.0,0.0,88,0.00,-SN,,0.01,WeatherDisplay:10.37,2013-03-19 18:15:00,
2013-03-19 14:20:00,31.5,28.4,29.83,NE,40,0.0,0.0,88,0.00,-SN,,0.01,WeatherDisplay:10.37,2013-03-19 18:20:00,
2013-03-19 14:25:00,31.3,28.2,29.84,NE,40,0.0,0.0,88,0.00,-SN,,0.01,WeatherDisplay:10.37,2013-03-19 18:25:00,
2013-03-19 14:30:00,31.4,28.3,29.84,NE,40,0.0,0.0,88,0.00,-SN,,0.01,WeatherDisplay:10.37,2013-03-19 18:30:00,
2013-03-19 14:35:00,31.3,27.6,29.83,NE,40,0.0,0.0,86,0.00,-SN,,0.01,WeatherDisplay:10.37,2013-03-19 18:35:00,
2013-03-19 14:45:00,31.4,27.7,29.83,NE,40,0.0,0.0,86,0.00,-SN,,0.01,WeatherDisplay:10.37,2013-03-19 18:45:00,
2013-03-19 14:50:00,31.3,27.6,29.83,NE,40,0.0,0.0,86,0.00,-SN,,0.01,WeatherDisplay:10.37,2013-03-19 18:50:00,
2013-03-19 14:55:00,31.4,27.7,29.82,NE,40,0.0,0.0,86,0.00,-SN,,0.01,WeatherDisplay:10.37,2013-03-19 18:55:00,
2013-03-19 15:05:00,31.3,30.3,29.82,NE,40,0.0,0.0,96,0.00,-SN,,0.01,WeatherDisplay:10.37,2013-03-19 19:05:00,
2013-03-19 15:10:00,31.3,30.3,29.81,NE,40,0.0,0.0,96,0.00,-SN,,0.01,WeatherDisplay:10.37,2013-03-19 19:10:00,
2013-03-19 15:15:00,31.1,30.1,29.80,NE,40,0.0,0.0,96,0.00,-SN,,0.01,WeatherDisplay:10.37,2013-03-19 19:15:00,
2013-03-19 15:20:00,31.1,30.1,29.79,NE,40,0.0,0.0,96,0.00,-SN,,0.01,WeatherDisplay:10.37,2013-03-19 19:20:00,
2013-03-19 15:25:00,31.3,30.3,29.78,NE,40,0.0,0.0,96,0.00,-SN,,0.01,WeatherDisplay:10.37,2013-03-19 19:25:00,
2013-03-19 15:30:00,31.1,30.1,29.76,NE,40,0.0,0.0,96,0.00,-SN,,0.01,WeatherDisplay:10.37,2013-03-19 19:30:00,
2013-03-19 15:35:00,31.0,31.0,29.76,NE,40,0.0,0.0,100,0.00,OVC,,0.01,WeatherDisplay:10.37,2013-03-19 19:35:00,
2013-03-19 15:40:00,31.1,31.1,29.75,NE,40,0.0,0.0,100,0.00,OVC,,0.01,WeatherDisplay:10.37,2013-03-19 19:40:00,
2013-03-19 15:45:00,30.6,28.6,29.76,NE,40,0.0,0.0,92,0.00, +SN,,0.01,WeatherDisplay:10.37,2013-03-19 19:45:00,
2013-03-19 15:50:00,30.8,28.8,29.75,NE,40,0.0,0.0,92,0.00, +SN,,0.01,WeatherDisplay:10.37,2013-03-19 19:50:00,
2013-03-19 15:55:00,30.9,28.8,29.74,NE,40,0.0,0.0,92,0.00, +SN,,0.01,WeatherDisplay:10.37,2013-03-19 19:55:00,
2013-03-19 16:00:00,31.3,29.3,29.74,NE,40,0.0,0.0,92,0.00, +SN,,0.01,WeatherDisplay:10.37,2013-03-19 20:00:00,
2013-03-19 16:10:00,31.3,30.3,29.74,NE,40,0.0,0.0,96,0.00, +SN,,0.01,WeatherDisplay:10.37,2013-03-19 20:10:00,
2013-03-19 16:15:00,31.2,30.2,29.73,NE,40,0.0,0.0,96,0.00, +SN,,0.01,WeatherDisplay:10.37,2013-03-19 20:15:00,
2013-03-19 16:20:00,31.1,30.1,29.74,NE,40,0.0,0.0,96,0.00, +SN,,0.01,WeatherDisplay:10.37,2013-03-19 20:20:00,
2013-03-19 16:25:00,31.2,30.2,29.74,NE,40,0.0,0.0,96,0.00, +SN,,0.01,WeatherDisplay:10.37,2013-03-19 20:25:00,
2013-03-19 16:30:00,31.4,30.4,29.74,NE,40,0.0,0.0,96,0.00, +SN,,0.01,WeatherDisplay:10.37,2013-03-19 20:30:00,
2013-03-19 16:35:00,31.2,30.2,29.74,NE,40,0.0,0.0,96,0.00, +SN,,0.01,WeatherDisplay:10.37,2013-03-19 20:35:00,
2013-03-19 16:45:00,30.9,28.9,29.74,NE,40,0.0,0.0,92,0.00,OVC,,0.01,WeatherDisplay:10.37,2013-03-19 20:45:00,
2013-03-19 16:50:00,30.8,28.8,29.74,NE,40,0.0,0.0,92,0.00,OVC,,0.01,WeatherDisplay:10.37,2013-03-19 20:50:00,
2013-03-19 16:55:00,31.0,28.9,29.74,NE,40,0.0,0.0,92,0.00,-SN,,0.01,WeatherDisplay:10.37,2013-03-19 20:55:00,
2013-03-19 17:00:00,30.8,28.7,29.74,NE,40,0.0,0.0,92,0.00,-SN,,0.01,WeatherDisplay:10.37,2013-03-19 21:00:00,
2013-03-19 17:10:00,30.6,27.5,29.74,NE,40,0.0,0.0,88,0.00,-SN,,0.01,WeatherDisplay:10.37,2013-03-19 21:10:00,
2013-03-19 17:15:00,30.3,27.2,29.74,NE,40,0.0,0.0,88,0.00,-SN,,0.01,WeatherDisplay:10.37,2013-03-19 21:15:00,
2013-03-19 17:20:00,30.3,27.2,29.73,NE,40,0.0,0.0,88,0.00,-SN,,0.01,WeatherDisplay:10.37,2013-03-19 21:20:00,
2013-03-19 17:25:00,30.1,28.1,29.73,NE,40,0.0,0.0,92,0.00,-SN,,0.01,WeatherDisplay:10.37,2013-03-19 21:25:00,
2013-03-19 17:30:00,30.1,28.1,29.73,NE,40,0.0,0.0,92,0.00,-SN,,0.01,WeatherDisplay:10.37,2013-03-19 21:30:00,
2013-03-19 17:35:00,30.3,28.2,29.73,NE,40,0.0,0.0,92,0.00,-SN,,0.01,WeatherDisplay:10.37,2013-03-19 21:35:00,
2013-03-19 17:45:00,30.4,26.7,29.73,NE,40,0.0,0.0,86,0.00,-SN,,0.01,WeatherDisplay:10.37,2013-03-19 21:45:00,
2013-03-19 17:50:00,30.2,26.5,29.73,NE,40,0.0,0.0,86,0.00,-SN,,0.01,WeatherDisplay:10.37,2013-03-19 21:50:00,
2013-03-19 17:55:00,30.2,26.5,29.72,NE,40,0.0,0.0,86,0.00,-SN,,0.01,WeatherDisplay:10.37,2013-03-19 21:55:00,
2013-03-19 18:00:00,30.2,26.6,29.72,NE,40,0.0,0.0,86,0.00,-SN,,0.01,WeatherDisplay:10.37,2013-03-19 22:00:00,
2013-03-19 18:05:00,30.0,26.9,29.71,NE,40,0.0,0.0,88,0.00,-SN,,0.01,WeatherDisplay:10.37,2013-03-19 22:05:00,
2013-03-19 18:10:00,30.0,26.9,29.72,NE,40,0.0,0.0,88,0.00,-SN,,0.01,WeatherDisplay:10.37,2013-03-19 22:10:00,
2013-03-19 18:15:00,29.4,25.7,29.72,NE,40,0.0,0.0,86,0.00,-SN,,0.01,WeatherDisplay:10.37,2013-03-19 22:15:00,
2013-03-19 18:20:00,29.5,25.8,29.73,NE,40,0.0,0.0,86,0.00,-SN,,0.01,WeatherDisplay:10.37,2013-03-19 22:20:00,
2013-03-19 18:25:00,29.4,25.7,29.73,NE,40,0.0,0.0,86,0.00,-SN,,0.01,WeatherDisplay:10.37,2013-03-19 22:25:00,
2013-03-19 18:30:00,29.7,26.0,29.73,NE,40,0.0,0.0,86,0.00,-SN,,0.01,WeatherDisplay:10.37,2013-03-19 22:30:00,
2013-03-19 18:35:00,29.4,25.7,29.72,NE,40,0.0,0.0,86,0.00,-SN,,0.01,WeatherDisplay:10.37,2013-03-19 22:35:00,
2013-03-19 18:40:00,29.1,25.4,29.72,NE,40,0.0,0.0,86,0.00,-SN,,0.01,WeatherDisplay:10.37,2013-03-19 22:40:00,
2013-03-19 18:45:00,29.3,25.6,29.73,NE,40,0.0,0.0,86,0.00,-SN,,0.01,WeatherDisplay:10.37,2013-03-19 22:45:00,
2013-03-19 18:50:00,29.1,25.5,29.73,NE,40,0.0,0.0,86,0.00,-SN,,0.01,WeatherDisplay:10.37,2013-03-19 22:50:00,
2013-03-19 18:55:00,28.8,25.2,29.73,NE,40,0.0,0.0,86,0.00,-SN,,0.01,WeatherDisplay:10.37,2013-03-19 22:55:00,
2013-03-19 19:00:00,28.9,25.3,29.73,NE,40,0.0,0.0,86,0.00,-SN,,0.01,WeatherDisplay:10.37,2013-03-19 23:00:00,
2013-03-19 19:05:00,28.8,24.6,29.73,NE,40,0.0,0.0,84,0.00,-SN,,0.01,WeatherDisplay:10.37,2013-03-19 23:05:00,
2013-03-19 19:10:00,28.3,24.1,29.73,NE,40,0.0,0.0,84,0.00,-SN,,0.01,WeatherDisplay:10.37,2013-03-19 23:10:00,
2013-03-19 19:15:00,28.5,26.4,29.73,NE,40,0.0,0.0,92,0.00,-SN,,0.01,WeatherDisplay:10.37,2013-03-19 23:15:00,
2013-03-19 19:20:00,28.1,26.1,29.73,NE,40,0.0,0.0,92,0.00,-SN,,0.01,WeatherDisplay:10.37,2013-03-19 23:20:00,
2013-03-19 19:25:00,28.3,26.3,29.73,NE,40,0.0,0.0,92,0.00,-SN,,0.01,WeatherDisplay:10.37,2013-03-19 23:25:00,
2013-03-19 19:30:00,28.2,26.1,29.74,NE,40,0.0,0.0,92,0.00,-SN,,0.01,WeatherDisplay:10.37,2013-03-19 23:30:00,
2013-03-19 19:40:00,27.7,24.0,29.74,NE,40,0.0,0.0,86,0.00,-SN,,0.01,WeatherDisplay:10.37,2013-03-19 23:40:00,
2013-03-19 19:45:00,27.4,23.8,29.73,NE,40,0.0,0.0,86,0.00,-SN,,0.01,WeatherDisplay:10.37,2013-03-19 23:45:00,
2013-03-19 19:50:00,27.5,23.9,29.73,NE,40,0.0,0.0,86,0.00,-SN,,0.01,WeatherDisplay:10.37,2013-03-19 23:50:00,
2013-03-19 19:55:00,27.7,24.0,29.73,NE,40,0.0,0.0,86,0.00,-SN,,0.01,WeatherDisplay:10.37,2013-03-19 23:55:00,
2013-03-19 20:00:00,27.2,23.5,29.73,NE,40,0.0,0.0,86,0.00,-SN,,0.01,WeatherDisplay:10.37,2013-03-20 00:00:00,
2013-03-19 20:05:00,27.1,24.0,29.72,NE,40,0.0,0.0,88,0.00,-SN,,0.01,WeatherDisplay:10.37,2013-03-20 00:05:00,
2013-03-19 20:10:00,27.2,24.2,29.73,NE,40,0.0,0.0,88,0.00,-SN,,0.01,WeatherDisplay:10.37,2013-03-20 00:10:00,
2013-03-19 20:15:00,27.3,23.7,29.73,NE,40,0.0,0.0,86,0.00,-SN,,0.01,WeatherDisplay:10.37,2013-03-20 00:15:00,
2013-03-19 20:20:00,27.0,23.4,29.73,NE,40,0.0,0.0,86,0.00,-SN,,0.01,WeatherDisplay:10.37,2013-03-20 00:20:00,
2013-03-19 20:30:00,26.5,24.5,29.73,NE,40,0.0,0.0,92,0.00,-SN,,0.01,WeatherDisplay:10.37,2013-03-20 00:30:00,
2013-03-19 20:35:00,26.8,24.8,29.73,NE,40,0.0,0.0,92,0.00,-SN,,0.01,WeatherDisplay:10.37,2013-03-20 00:35:00,
2013-03-19 20:40:00,26.8,24.8,29.73,NE,40,0.0,0.0,92,0.00,-SN,,0.01,WeatherDisplay:10.37,2013-03-20 00:40:00,
2013-03-19 20:45:00,26.8,24.8,29.74,NE,40,0.0,0.0,92,0.00,-SN,,0.01,WeatherDisplay:10.37,2013-03-20 00:45:00,
2013-03-19 20:50:00,26.6,24.6,29.74,NE,40,0.0,0.0,92,0.00,-SN,,0.01,WeatherDisplay:10.37,2013-03-20 00:50:00,
2013-03-19 20:55:00,27.0,25.0,29.74,NE,40,0.0,0.0,92,0.00,-SN,,0.01,WeatherDisplay:10.37,2013-03-20 00:55:00,
2013-03-19 21:00:00,26.8,24.8,29.75,NE,40,0.0,0.0,92,0.00,-SN,,0.01,WeatherDisplay:10.37,2013-03-20 01:00:00,
2013-03-19 21:05:00,26.7,22.6,29.75,NE,40,0.0,0.0,84,0.00,-SN,,0.01,WeatherDisplay:10.37,2013-03-20 01:05:00,
2013-03-19 21:10:00,26.7,22.5,29.75,NE,40,0.0,0.0,84,0.00,-SN,,0.01,WeatherDisplay:10.37,2013-03-20 01:10:00,
2013-03-19 21:15:00,26.9,23.3,29.75,NE,40,0.0,0.0,86,0.00,-SN,,0.01,WeatherDisplay:10.37,2013-03-20 01:15:00,
2013-03-19 21:20:00,26.6,23.0,29.75,NE,40,0.0,0.0,86,0.00,-SN,,0.01,WeatherDisplay:10.37,2013-03-20 01:20:00,
2013-03-19 21:25:00,26.8,23.2,29.75,NE,40,0.0,0.0,86,0.00,-SN,,0.01,WeatherDisplay:10.37,2013-03-20 01:25:00,
2013-03-19 21:30:00,26.8,23.1,29.75,NE,40,0.0,0.0,86,0.00,-SN,,0.01,WeatherDisplay:10.37,2013-03-20 01:30:00,
2013-03-19 21:35:00,26.9,23.3,29.76,NE,40,0.0,0.0,86,0.00,OVC,,0.01,WeatherDisplay:10.37,2013-03-20 01:35:00,
2013-03-19 21:40:00,26.8,23.2,29.76,NE,40,0.0,0.0,86,0.00,OVC,,0.01,WeatherDisplay:10.37,2013-03-20 01:40:00,
2013-03-19 21:45:00,27.0,23.4,29.75,NE,40,0.0,0.0,86,0.00,OVC,,0.01,WeatherDisplay:10.37,2013-03-20 01:45:00,
2013-03-19 21:50:00,26.6,22.9,29.75,NE,40,0.0,0.0,86,0.00,OVC,,0.01,WeatherDisplay:10.37,2013-03-20 01:50:00,
2013-03-19 21:55:00,27.0,23.4,29.75,NE,40,0.0,0.0,86,0.00,OVC,,0.01,WeatherDisplay:10.37,2013-03-20 01:55:00,
2013-03-19 22:00:00,26.8,23.1,29.76,NE,40,0.0,0.0,86,0.00,OVC,,0.01,WeatherDisplay:10.37,2013-03-20 02:00:00,
2013-03-19 22:05:00,26.5,22.3,29.75,NE,40,0.0,0.0,84,0.00,-SN,,0.01,WeatherDisplay:10.37,2013-03-20 02:05:00,
2013-03-19 22:10:00,26.4,22.2,29.75,NE,40,0.0,0.0,84,0.00,-SN,,0.01,WeatherDisplay:10.37,2013-03-20 02:10:00,
2013-03-19 22:15:00,26.5,22.3,29.76,NE,40,0.0,0.0,84,0.00,-SN,,0.01,WeatherDisplay:10.37,2013-03-20 02:15:00,
2013-03-19 22:20:00,26.3,22.1,29.75,NE,40,0.0,0.0,84,0.00,-SN,,0.01,WeatherDisplay:10.37,2013-03-20 02:20:00,
2013-03-19 22:25:00,26.7,22.5,29.75,NE,40,0.0,0.0,84,0.00,-SN,,0.01,WeatherDisplay:10.37,2013-03-20 02:25:00,
2013-03-19 22:30:00,26.4,22.2,29.75,NE,40,0.0,0.0,84,0.00,-SN,,0.01,WeatherDisplay:10.37,2013-03-20 02:30:00,
2013-03-19 22:35:00,25.8,20.1,29.75,NE,40,0.0,0.0,79,0.00,-SN,,0.01,WeatherDisplay:10.37,2013-03-20 02:35:00,
2013-03-19 22:40:00,26.0,20.4,29.75,NE,40,0.0,0.0,79,0.00,-SN,,0.01,WeatherDisplay:10.37,2013-03-20 02:40:00,
2013-03-19 22:45:00,26.1,20.4,29.76,NE,40,0.0,0.0,79,0.00,-SN,,0.01,WeatherDisplay:10.37,2013-03-20 02:45:00,
2013-03-19 22:50:00,25.3,19.7,29.76,NE,40,0.0,0.0,79,0.00,-SN,,0.01,WeatherDisplay:10.37,2013-03-20 02:50:00,
2013-03-19 22:55:00,25.6,20.0,29.76,NE,40,0.0,0.0,79,0.00,-SN,,0.01,WeatherDisplay:10.37,2013-03-20 02:55:00,
2013-03-19 23:00:00,26.3,20.7,29.75,NE,40,0.0,0.0,79,0.00,-SN,,0.01,WeatherDisplay:10.37,2013-03-20 03:00:00,
2013-03-19 23:05:00,25.6,22.3,29.75,NE,40,0.0,0.0,87,0.00,-SN,,0.01,WeatherDisplay:10.37,2013-03-20 03:05:00,
2013-03-19 23:10:00,25.6,22.3,29.75,NE,40,0.0,0.0,87,0.00,-SN,,0.01,WeatherDisplay:10.37,2013-03-20 03:10:00,
2013-03-19 23:15:00,25.2,21.3,29.75,NE,40,0.0,0.0,85,0.00,-SN,,0.01,WeatherDisplay:10.37,2013-03-20 03:15:00,
2013-03-19 23:20:00,25.3,21.4,29.75,NE,40,0.0,0.0,85,0.00,-SN,,0.01,WeatherDisplay:10.37,2013-03-20 03:20:00,
2013-03-19 23:25:00,25.0,21.2,29.75,NE,40,0.0,0.0,85,0.00,-SN,,0.01,WeatherDisplay:10.37,2013-03-20 03:25:00,
2013-03-19 23:30:00,24.6,20.8,29.74,NE,40,0.0,0.0,85,0.00,-SN,,0.01,WeatherDisplay:10.37,2013-03-20 03:30:00,
2013-03-19 23:35:00,25.0,21.1,29.74,NE,40,0.0,0.0,85,0.00,-SN,,0.01,WeatherDisplay:10.37,2013-03-20 03:35:00,
2013-03-19 23:40:00,24.6,20.7,29.74,NE,40,0.0,0.0,85,0.00,-SN,,0.01,WeatherDisplay:10.37,2013-03-20 03:40:00,
2013-03-19 23:45:00,24.8,20.9,29.74,NE,40,0.0,0.0,85,0.00,-SN,,0.01,WeatherDisplay:10.37,2013-03-20 03:45:00,
2013-03-19 23:50:00,24.8,20.9,29.74,NE,40,0.0,0.0,85,0.00,-SN,,0.01,WeatherDisplay:10.37,2013-03-20 03:50:00,
2013-03-19 23:55:00,24.9,21.1,29.74,NE,40,0.0,0.0,85,0.00,-SN,,0.01,WeatherDisplay:10.37,2013-03-20 03:55:00,